createdAt,value
2017-11-08T00:00:43.935Z,47.25
2017-11-08T00:01:50.527Z,54.45
2017-11-08T00:02:56.288Z,51.33
2017-11-08T00:04:02.042Z,49.75
2017-11-08T00:05:07.827Z,53.97
2017-11-08T00:06:14.339Z,60.88
2017-11-08T00:07:20.081Z,53.67
2017-11-08T00:08:25.847Z,49.13
2017-11-08T00:09:31.597Z,53.65
2017-11-08T00:10:38.149Z,50.72
2017-11-08T00:11:43.913Z,53.55
2017-11-08T00:12:50.419Z,51.25
2017-11-08T00:13:56.172Z,53.85
2017-11-08T00:15:01.926Z,47.47
2017-11-08T00:16:08.651Z,50.70
2017-11-08T00:17:14.397Z,57.25
2017-11-08T00:18:20.148Z,58.50
2017-11-08T00:19:25.890Z,54.63
2017-11-08T00:20:31.640Z,51.08
2017-11-08T00:21:42.829Z,59.40
2017-11-08T00:22:50.124Z,54.55
2017-11-08T00:23:55.875Z,51.80
2017-11-08T00:25:02.385Z,55.38
2017-11-08T00:26:08.127Z,58.05
2017-11-08T00:27:13.912Z,53.75
2017-11-08T00:28:20.424Z,52.13
2017-11-08T00:29:26.177Z,54.60
2017-11-08T00:30:31.932Z,52.70
2017-11-08T00:31:38.486Z,53.78
2017-11-08T00:32:44.089Z,56.78
2017-11-08T00:33:49.846Z,57.53
2017-11-08T00:34:55.603Z,54.10
2017-11-08T00:36:01.348Z,49.03
2017-11-08T00:37:07.104Z,51.00
2017-11-08T00:38:12.884Z,46.35
2017-11-08T00:39:18.648Z,61.05
2017-11-08T00:40:24.400Z,59.40
2017-11-08T00:41:29.936Z,56.55
2017-11-08T00:42:35.696Z,54.38
2017-11-08T00:43:42.244Z,53.72
2017-11-08T00:44:47.996Z,61.25
2017-11-08T00:45:53.769Z,56.05
2017-11-08T00:47:00.281Z,58.63
2017-11-08T00:48:06.038Z,52.67
2017-11-08T00:49:11.813Z,54.53
2017-11-08T00:50:18.336Z,56.78
2017-11-08T00:51:24.091Z,59.20
2017-11-08T00:52:29.837Z,50.03
2017-11-08T00:53:38.742Z,55.92
2017-11-08T00:54:44.518Z,56.50
2017-11-08T00:55:51.028Z,55.45
2017-11-08T00:56:57.588Z,58.87
2017-11-08T00:58:03.438Z,62.95
2017-11-08T00:59:09.200Z,56.15
2017-11-08T01:00:16.820Z,64.37
2017-11-08T01:01:22.577Z,53.40
2017-11-08T01:02:28.333Z,60.60
2017-11-08T01:03:34.072Z,55.88
2017-11-08T01:04:40.097Z,63.38
2017-11-08T01:05:45.893Z,61.08
2017-11-08T01:06:51.635Z,56.22
2017-11-08T01:07:57.379Z,61.92
2017-11-08T01:09:03.139Z,66.37
2017-11-08T01:10:09.668Z,58.03
2017-11-08T01:11:16.949Z,59.30
2017-11-08T01:12:22.965Z,57.33
2017-11-08T01:13:28.720Z,59.53
2017-11-08T01:14:34.472Z,58.17
2017-11-08T01:15:40.227Z,52.42
2017-11-08T01:16:46.584Z,49.72
2017-11-08T01:17:52.125Z,57.60
2017-11-08T01:18:57.883Z,60.10
2017-11-08T01:20:04.388Z,59.13
2017-11-08T01:21:09.955Z,63.13
2017-11-08T01:22:15.740Z,61.80
2017-11-08T01:23:21.497Z,62.53
2017-11-08T01:24:27.259Z,56.78
2017-11-08T01:25:33.001Z,63.00
2017-11-08T01:26:38.801Z,58.75
2017-11-08T01:27:44.644Z,65.45
2017-11-08T01:28:50.384Z,54.15
2017-11-08T01:29:56.139Z,65.32
2017-11-08T01:31:01.916Z,60.70
2017-11-08T01:32:07.333Z,60.88
2017-11-08T01:33:13.116Z,67.43
2017-11-08T01:34:19.705Z,57.33
2017-11-08T01:35:25.457Z,58.28
2017-11-08T01:36:31.205Z,60.35
2017-11-08T01:37:41.520Z,60.65
2017-11-08T01:38:49.020Z,57.20
2017-11-08T01:39:55.940Z,57.92
2017-11-08T01:41:05.263Z,61.33
2017-11-08T01:42:10.886Z,60.78
2017-11-08T01:43:17.750Z,69.95
2017-11-08T01:44:26.237Z,62.08
2017-11-08T01:45:35.396Z,66.03
2017-11-08T01:46:42.141Z,69.50
2017-11-08T01:47:47.906Z,72.82
2017-11-08T01:48:53.678Z,73.15
2017-11-08T01:50:03.769Z,69.97
2017-11-08T01:51:14.246Z,69.15
2017-11-08T01:52:20.036Z,68.40
2017-11-08T01:53:25.788Z,70.03
2017-11-08T01:54:31.536Z,76.57
2017-11-08T01:55:39.080Z,70.97
2017-11-08T01:56:43.933Z,65.75
2017-11-08T01:57:48.805Z,74.05
2017-11-08T01:58:54.976Z,68.50
2017-11-08T02:00:00.821Z,67.40
2017-11-08T02:01:07.370Z,76.45
2017-11-08T02:02:13.881Z,77.93
2017-11-08T02:03:19.448Z,65.78
2017-11-08T02:04:25.200Z,65.03
2017-11-08T02:05:31.738Z,67.00
2017-11-08T02:06:37.527Z,69.18
2017-11-08T02:07:43.292Z,74.97
2017-11-08T02:08:49.050Z,70.05
2017-11-08T02:09:54.805Z,72.07
2017-11-08T02:11:00.565Z,69.30
2017-11-08T02:12:07.149Z,65.95
2017-11-08T02:13:12.912Z,70.78
2017-11-08T02:14:18.669Z,73.32
2017-11-08T02:15:24.236Z,73.37
2017-11-08T02:16:30.040Z,72.28
2017-11-08T02:17:41.252Z,67.20
2017-11-08T02:18:51.044Z,66.57
2017-11-08T02:19:57.360Z,69.70
2017-11-08T02:21:03.536Z,67.70
2017-11-08T02:22:09.293Z,67.30
2017-11-08T02:23:14.735Z,67.97
2017-11-08T02:24:20.145Z,64.45
2017-11-08T02:25:26.190Z,74.28
2017-11-08T02:26:36.939Z,74.82
2017-11-08T02:27:41.749Z,71.30
2017-11-08T02:28:47.960Z,76.10
2017-11-08T02:29:53.716Z,76.80
2017-11-08T02:30:59.468Z,71.22
2017-11-08T02:32:05.299Z,74.50
2017-11-08T02:33:10.356Z,74.95
2017-11-08T02:34:15.444Z,80.62
2017-11-08T02:35:20.858Z,60.90
2017-11-08T02:36:27.446Z,69.32
2017-11-08T02:37:33.214Z,75.90
2017-11-08T02:38:39.732Z,79.00
2017-11-08T02:39:45.656Z,75.32
2017-11-08T02:40:51.411Z,69.07
2017-11-08T02:41:57.166Z,73.37
2017-11-08T02:43:02.905Z,78.12
2017-11-08T02:44:08.653Z,75.28
2017-11-08T02:45:15.942Z,72.93
2017-11-08T02:46:26.604Z,70.60
2017-11-08T02:47:33.130Z,69.90
2017-11-08T02:48:38.938Z,78.20
2017-11-08T02:49:45.447Z,75.45
2017-11-08T02:50:51.257Z,68.15
2017-11-08T02:51:57.021Z,75.60
2017-11-08T02:53:02.775Z,71.22
2017-11-08T02:54:09.010Z,66.87
2017-11-08T02:55:14.758Z,66.70
2017-11-08T02:56:20.539Z,71.32
2017-11-08T02:57:27.068Z,66.10
2017-11-08T02:58:33.581Z,66.07
2017-11-08T02:59:41.133Z,77.40
2017-11-08T03:00:47.659Z,72.28
2017-11-08T03:01:53.433Z,58.28
2017-11-08T03:03:02.366Z,69.85
2017-11-08T03:04:08.131Z,70.70
2017-11-08T03:05:18.569Z,74.05
2017-11-08T03:06:24.331Z,71.20
2017-11-08T03:07:30.120Z,74.07
2017-11-08T03:08:36.650Z,64.70
2017-11-08T03:09:42.401Z,65.07
2017-11-08T03:10:48.152Z,64.22
2017-11-08T03:11:53.918Z,69.43
2017-11-08T03:13:00.468Z,70.07
2017-11-08T03:14:06.233Z,75.20
2017-11-08T03:15:11.982Z,67.62
2017-11-08T03:16:18.291Z,73.78
2017-11-08T03:17:24.140Z,72.03
2017-11-08T03:18:29.993Z,73.12
2017-11-08T03:19:35.800Z,61.75
2017-11-08T03:20:41.544Z,73.20
2017-11-08T03:21:47.297Z,67.85
2017-11-08T03:22:53.057Z,71.95
2017-11-08T03:23:59.609Z,68.15
2017-11-08T03:25:05.168Z,72.35
2017-11-08T03:26:11.684Z,75.43
2017-11-08T03:27:17.435Z,72.72
2017-11-08T03:28:23.201Z,75.55
2017-11-08T03:29:29.741Z,63.20
2017-11-08T03:30:35.508Z,71.72
2017-11-08T03:31:42.045Z,67.28
2017-11-08T03:32:47.806Z,71.15
2017-11-08T03:33:54.324Z,75.93
2017-11-08T03:35:00.100Z,73.18
2017-11-08T03:36:05.942Z,82.05
2017-11-08T03:37:11.352Z,73.43
2017-11-08T03:38:17.125Z,73.50
2017-11-08T03:39:23.653Z,70.95
2017-11-08T03:40:29.437Z,72.25
2017-11-08T03:41:35.200Z,70.50
2017-11-08T03:42:40.961Z,73.68
2017-11-08T03:43:46.717Z,69.55
2017-11-08T03:44:52.466Z,81.80
2017-11-08T03:45:58.245Z,83.68
2017-11-08T03:47:03.998Z,75.22
2017-11-08T03:48:09.738Z,78.50
2017-11-08T03:49:15.481Z,61.88
2017-11-08T03:50:21.246Z,74.50
2017-11-08T03:51:27.020Z,71.03
2017-11-08T03:52:32.773Z,68.05
2017-11-08T03:53:39.301Z,72.90
2017-11-08T03:54:45.049Z,74.70
2017-11-08T03:55:50.795Z,80.15
2017-11-08T03:56:56.580Z,71.35
2017-11-08T03:58:03.096Z,81.40
2017-11-08T03:59:08.845Z,75.35
2017-11-08T04:00:14.604Z,77.05
2017-11-08T04:01:21.120Z,72.62
2017-11-08T04:02:27.356Z,76.97
2017-11-08T04:03:33.104Z,81.50
2017-11-08T04:04:38.852Z,79.30
2017-11-08T04:05:44.618Z,85.10
2017-11-08T04:06:50.371Z,75.35
2017-11-08T04:07:56.152Z,75.82
2017-11-08T04:09:01.917Z,70.90
2017-11-08T04:10:07.461Z,84.22
2017-11-08T04:11:13.220Z,72.65
2017-11-08T04:12:18.980Z,80.38
2017-11-08T04:13:24.583Z,76.25
2017-11-08T04:14:30.318Z,75.30
2017-11-08T04:15:36.080Z,72.18
2017-11-08T04:16:41.493Z,74.20
2017-11-08T04:17:47.052Z,81.55
2017-11-08T04:18:52.847Z,72.30
2017-11-08T04:19:58.417Z,84.07
2017-11-08T04:21:04.177Z,74.50
2017-11-08T04:22:09.921Z,77.50
2017-11-08T04:23:15.690Z,75.05
2017-11-08T04:24:21.876Z,78.35
2017-11-08T04:25:27.280Z,76.55
2017-11-08T04:26:33.808Z,79.30
2017-11-08T04:27:39.556Z,68.40
2017-11-08T04:28:45.319Z,71.22
2017-11-08T04:29:51.091Z,79.68
2017-11-08T04:30:56.843Z,70.72
2017-11-08T04:32:02.588Z,74.18
2017-11-08T04:33:08.345Z,73.20
2017-11-08T04:34:14.093Z,75.45
2017-11-08T04:35:19.882Z,67.35
2017-11-08T04:36:25.648Z,76.55
2017-11-08T04:37:31.396Z,68.75
2017-11-08T04:38:37.410Z,68.40
2017-11-08T04:39:43.165Z,83.25
2017-11-08T04:40:48.936Z,82.70
2017-11-08T04:41:54.685Z,77.07
2017-11-08T04:43:00.429Z,78.03
2017-11-08T04:44:06.172Z,81.35
2017-11-08T04:45:11.247Z,74.15
2017-11-08T04:46:16.599Z,71.20
2017-11-08T04:47:22.353Z,81.60
2017-11-08T04:48:28.113Z,72.07
2017-11-08T04:49:33.868Z,72.35
2017-11-08T04:50:39.628Z,74.18
2017-11-08T04:51:46.180Z,60.47
2017-11-08T04:52:52.701Z,69.68
2017-11-08T04:53:58.268Z,87.57
2017-11-08T04:55:03.848Z,70.93
2017-11-08T04:56:09.586Z,83.18
2017-11-08T04:57:15.180Z,78.65
2017-11-08T04:58:20.939Z,62.97
2017-11-08T04:59:27.455Z,68.50
2017-11-08T05:00:33.212Z,75.70
2017-11-08T05:01:38.978Z,77.55
2017-11-08T05:02:45.531Z,85.57
2017-11-08T05:03:52.041Z,82.57
2017-11-08T05:04:57.791Z,78.37
2017-11-08T05:06:03.542Z,79.37
2017-11-08T05:07:09.296Z,75.95
2017-11-08T05:08:15.089Z,79.30
2017-11-08T05:09:20.842Z,74.78
2017-11-08T05:10:26.586Z,80.55
2017-11-08T05:11:32.336Z,74.93
2017-11-08T05:12:38.098Z,74.07
2017-11-08T05:13:43.886Z,88.00
2017-11-08T05:14:50.393Z,78.10
2017-11-08T05:15:56.165Z,84.45
2017-11-08T05:17:01.913Z,76.35
2017-11-08T05:18:07.665Z,78.03
2017-11-08T05:19:14.210Z,77.53
2017-11-08T05:20:19.953Z,80.07
2017-11-08T05:21:26.474Z,84.15
2017-11-08T05:22:32.241Z,78.65
2017-11-08T05:23:39.515Z,75.97
2017-11-08T05:24:46.057Z,83.93
2017-11-08T05:25:51.801Z,76.40
2017-11-08T05:26:57.545Z,78.32
2017-11-08T05:28:03.382Z,78.32
2017-11-08T05:29:09.135Z,75.65
2017-11-08T05:30:14.906Z,81.50
2017-11-08T05:31:21.220Z,84.22
2017-11-08T05:32:26.974Z,82.80
2017-11-08T05:33:33.485Z,79.25
2017-11-08T05:34:39.234Z,78.18
2017-11-08T05:35:45.014Z,75.47
2017-11-08T05:36:50.776Z,84.10
2017-11-08T05:37:57.303Z,82.70
2017-11-08T05:39:03.057Z,78.15
2017-11-08T05:40:08.800Z,80.07
2017-11-08T05:41:14.577Z,74.45
2017-11-08T05:42:21.087Z,84.37
2017-11-08T05:43:26.845Z,85.40
2017-11-08T05:44:32.592Z,77.05
2017-11-08T05:45:39.845Z,74.53
2017-11-08T05:46:45.629Z,73.80
2017-11-08T05:47:51.964Z,79.85
2017-11-08T05:48:59.258Z,85.12
2017-11-08T05:50:05.776Z,86.05
2017-11-08T05:51:11.524Z,75.45
2017-11-08T05:52:17.325Z,78.37
2017-11-08T05:53:22.893Z,83.12
2017-11-08T05:54:28.644Z,75.80
2017-11-08T05:55:34.409Z,78.80
2017-11-08T05:56:40.161Z,79.37
2017-11-08T05:57:46.706Z,79.05
2017-11-08T05:58:53.960Z,81.28
2017-11-08T05:59:59.724Z,82.43
2017-11-08T06:01:05.468Z,75.97
2017-11-08T06:02:11.329Z,85.05
2017-11-08T06:03:17.881Z,75.15
2017-11-08T06:04:24.398Z,84.95
2017-11-08T06:05:30.149Z,82.07
2017-11-08T06:06:35.956Z,84.75
2017-11-08T06:07:41.713Z,83.03
2017-11-08T06:08:47.493Z,81.47
2017-11-08T06:09:53.240Z,81.28
2017-11-08T06:10:58.996Z,76.43
2017-11-08T06:12:05.521Z,82.57
2017-11-08T06:13:11.376Z,74.12
2017-11-08T06:14:17.156Z,78.15
2017-11-08T06:15:22.920Z,81.05
2017-11-08T06:16:28.698Z,90.93
2017-11-08T06:17:34.456Z,83.00
2017-11-08T06:18:40.981Z,83.78
2017-11-08T06:19:46.794Z,78.25
2017-11-08T06:20:52.535Z,82.55
2017-11-08T06:21:58.301Z,83.07
2017-11-08T06:23:04.063Z,85.25
2017-11-08T06:24:09.830Z,74.62
2017-11-08T06:25:16.384Z,86.12
2017-11-08T06:26:21.953Z,80.12
2017-11-08T06:27:27.976Z,76.68
2017-11-08T06:28:34.674Z,86.82
2017-11-08T06:29:40.760Z,82.50
2017-11-08T06:30:46.803Z,79.60
2017-11-08T06:31:52.936Z,81.78
2017-11-08T06:32:58.865Z,78.18
2017-11-08T06:34:05.062Z,78.53
2017-11-08T06:35:11.478Z,83.80
2017-11-08T06:36:17.300Z,79.22
2017-11-08T06:37:23.147Z,90.80
2017-11-08T06:38:29.774Z,91.63
2017-11-08T06:39:35.532Z,79.03
2017-11-08T06:40:42.059Z,80.43
2017-11-08T06:41:48.645Z,85.12
2017-11-08T06:42:54.405Z,85.22
2017-11-08T06:44:00.936Z,78.30
2017-11-08T06:45:07.457Z,74.43
2017-11-08T06:46:13.254Z,90.70
2017-11-08T06:47:19.872Z,85.15
2017-11-08T06:48:25.622Z,86.43
2017-11-08T06:49:31.381Z,81.80
2017-11-08T06:50:38.057Z,79.53
2017-11-08T06:51:47.613Z,79.95
2017-11-08T06:52:53.005Z,81.25
2017-11-08T06:53:59.528Z,79.43
2017-11-08T06:55:05.082Z,80.50
2017-11-08T06:56:10.834Z,81.95
2017-11-08T06:57:22.523Z,89.45
2017-11-08T06:58:28.347Z,79.45
2017-11-08T06:59:34.102Z,83.32
2017-11-08T07:00:39.859Z,72.57
2017-11-08T07:01:45.632Z,84.10
2017-11-08T07:02:51.388Z,79.12
2017-11-08T07:03:56.992Z,78.53
2017-11-08T07:05:03.515Z,88.85
2017-11-08T07:06:09.269Z,74.30
2017-11-08T07:07:15.020Z,76.15
2017-11-08T07:08:20.778Z,73.85
2017-11-08T07:09:27.313Z,76.18
2017-11-08T07:10:33.069Z,81.97
2017-11-08T07:11:39.649Z,82.20
2017-11-08T07:12:46.172Z,78.30
2017-11-08T07:13:51.928Z,79.90
2017-11-08T07:14:57.709Z,82.00
2017-11-08T07:16:03.462Z,75.62
2017-11-08T07:17:10.152Z,75.57
2017-11-08T07:18:16.331Z,80.38
2017-11-08T07:19:22.409Z,77.53
2017-11-08T07:20:28.255Z,74.85
2017-11-08T07:21:33.844Z,76.15
2017-11-08T07:22:39.600Z,77.45
2017-11-08T07:23:46.116Z,72.80
2017-11-08T07:24:51.881Z,85.18
2017-11-08T07:25:57.676Z,74.28
2017-11-08T07:27:03.423Z,78.12
2017-11-08T07:28:09.184Z,82.20
2017-11-08T07:29:14.940Z,79.03
2017-11-08T07:30:21.477Z,72.93
2017-11-08T07:31:27.269Z,80.75
2017-11-08T07:32:33.804Z,72.50
2017-11-08T07:33:39.346Z,80.22
2017-11-08T07:34:45.148Z,82.68
2017-11-08T07:35:50.894Z,75.25
2017-11-08T07:36:56.664Z,77.62
2017-11-08T07:38:02.421Z,68.68
2017-11-08T07:39:08.177Z,78.80
2017-11-08T07:40:14.236Z,72.25
2017-11-08T07:41:20.754Z,78.53
2017-11-08T07:42:26.337Z,73.47
2017-11-08T07:43:32.862Z,71.43
2017-11-08T07:44:38.631Z,75.40
2017-11-08T07:45:45.141Z,79.45
2017-11-08T07:46:50.924Z,71.15
2017-11-08T07:47:57.470Z,67.10
2017-11-08T07:49:03.208Z,78.75
2017-11-08T07:50:08.959Z,75.45
2017-11-08T07:51:15.489Z,67.00
2017-11-08T07:52:21.243Z,72.57
2017-11-08T07:53:27.050Z,72.05
2017-11-08T07:54:34.622Z,69.15
2017-11-08T07:55:46.376Z,73.55
2017-11-08T07:56:56.852Z,70.28
2017-11-08T07:58:05.340Z,62.25
2017-11-08T07:59:11.889Z,70.70
2017-11-08T08:00:18.668Z,63.70
2017-11-08T08:01:23.552Z,71.78
2017-11-08T08:02:29.312Z,68.80
2017-11-08T08:03:34.869Z,74.43
2017-11-08T08:04:41.424Z,66.82
2017-11-08T08:05:47.946Z,77.75
2017-11-08T08:06:53.700Z,74.00
2017-11-08T08:07:59.465Z,70.43
2017-11-08T08:09:05.044Z,64.03
2017-11-08T08:10:10.847Z,71.90
2017-11-08T08:11:20.468Z,75.50
2017-11-08T08:12:26.991Z,72.85
2017-11-08T08:13:32.749Z,69.70
2017-11-08T08:14:38.502Z,66.87
2017-11-08T08:15:45.805Z,69.22
2017-11-08T08:16:52.325Z,70.90
2017-11-08T08:17:58.092Z,62.22
2017-11-08T08:19:03.847Z,79.85
2017-11-08T08:20:10.356Z,77.07
2017-11-08T08:21:16.144Z,68.03
2017-11-08T08:22:22.651Z,74.47
2017-11-08T08:23:28.400Z,67.62
2017-11-08T08:24:34.169Z,70.78
2017-11-08T08:25:39.943Z,75.25
2017-11-08T08:26:51.073Z,61.10
2017-11-08T08:27:56.680Z,76.85
2017-11-08T08:29:02.427Z,73.12
2017-11-08T08:30:08.193Z,70.35
2017-11-08T08:31:13.956Z,69.32
2017-11-08T08:32:20.513Z,67.47
2017-11-08T08:33:27.033Z,66.90
2017-11-08T08:34:32.621Z,76.47
2017-11-08T08:35:39.128Z,71.80
2017-11-08T08:36:44.897Z,72.55
2017-11-08T08:37:50.690Z,69.82
2017-11-08T08:38:56.457Z,72.03
2017-11-08T08:40:01.870Z,67.93
2017-11-08T08:41:07.485Z,67.30
2017-11-08T08:42:13.272Z,71.47
2017-11-08T08:43:19.062Z,67.47
2017-11-08T08:44:25.582Z,68.03
2017-11-08T08:45:31.333Z,65.53
2017-11-08T08:46:37.085Z,69.25
2017-11-08T08:47:42.820Z,79.20
2017-11-08T08:48:51.622Z,68.85
2017-11-08T08:49:57.372Z,73.25
2017-11-08T08:51:03.121Z,76.65
2017-11-08T08:52:08.881Z,73.20
2017-11-08T08:53:14.653Z,66.95
2017-11-08T08:54:20.430Z,66.72
2017-11-08T08:55:26.224Z,67.50
2017-11-08T08:56:31.988Z,69.80
2017-11-08T08:57:37.541Z,68.93
2017-11-08T08:58:43.349Z,71.10
2017-11-08T08:59:49.136Z,68.22
2017-11-08T09:00:54.925Z,70.82
2017-11-08T09:02:00.684Z,63.90
2017-11-08T09:03:06.454Z,74.65
2017-11-08T09:04:12.212Z,71.62
2017-11-08T09:05:18.009Z,65.45
2017-11-08T09:06:22.884Z,76.12
2017-11-08T09:07:28.670Z,65.90
2017-11-08T09:08:34.425Z,70.87
2017-11-08T09:09:40.184Z,70.00
2017-11-08T09:10:45.972Z,68.97
2017-11-08T09:11:51.730Z,70.45
2017-11-08T09:12:57.483Z,68.25
2017-11-08T09:14:03.250Z,70.97
2017-11-08T09:15:09.013Z,62.85
2017-11-08T09:16:14.616Z,70.25
2017-11-08T09:17:20.380Z,65.75
2017-11-08T09:18:26.131Z,67.95
2017-11-08T09:19:33.664Z,67.03
2017-11-08T09:20:39.424Z,79.72
2017-11-08T09:21:44.692Z,71.57
2017-11-08T09:22:51.225Z,65.28
2017-11-08T09:23:59.995Z,62.50
2017-11-08T09:25:05.433Z,72.05
2017-11-08T09:26:10.650Z,70.90
2017-11-08T09:27:16.441Z,68.35
2017-11-08T09:28:22.220Z,71.07
2017-11-08T09:29:29.574Z,64.80
2017-11-08T09:30:34.787Z,72.30
2017-11-08T09:31:40.542Z,75.40
2017-11-08T09:32:46.321Z,69.07
2017-11-08T09:33:52.181Z,70.80
2017-11-08T09:35:00.560Z,64.75
2017-11-08T09:36:07.148Z,65.07
2017-11-08T09:37:12.896Z,64.15
2017-11-08T09:38:18.705Z,65.18
2017-11-08T09:39:25.053Z,67.12
2017-11-08T09:40:31.381Z,71.00
2017-11-08T09:41:37.143Z,68.32
2017-11-08T09:42:42.692Z,68.90
2017-11-08T09:43:49.250Z,68.15
2017-11-08T09:44:55.768Z,72.93
2017-11-08T09:46:01.544Z,65.78
2017-11-08T09:47:08.936Z,66.85
2017-11-08T09:48:15.476Z,70.68
2017-11-08T09:49:21.264Z,65.43
2017-11-08T09:50:26.434Z,64.57
2017-11-08T09:51:32.197Z,70.97
2017-11-08T09:52:42.499Z,70.37
2017-11-08T09:53:48.268Z,60.90
2017-11-08T09:54:54.070Z,64.62
2017-11-08T09:55:59.886Z,65.55
2017-11-08T09:57:11.797Z,66.00
2017-11-08T09:58:17.792Z,64.82
2017-11-08T09:59:25.388Z,63.20
2017-11-08T10:00:31.941Z,67.50
2017-11-08T10:01:42.806Z,73.18
2017-11-08T10:02:48.573Z,66.45
2017-11-08T10:03:55.099Z,72.60
2017-11-08T10:05:00.848Z,68.55
2017-11-08T10:06:06.762Z,64.28
2017-11-08T10:07:12.768Z,63.08
2017-11-08T10:08:18.532Z,61.95
2017-11-08T10:09:30.021Z,68.03
2017-11-08T10:10:35.812Z,66.78
2017-11-08T10:11:47.274Z,75.93
2017-11-08T10:12:58.480Z,58.78
2017-11-08T10:14:04.260Z,70.28
2017-11-08T10:15:10.023Z,68.25
2017-11-08T10:16:19.599Z,68.18
2017-11-08T10:17:25.389Z,63.67
2017-11-08T10:18:31.153Z,64.62
2017-11-08T10:19:37.482Z,67.75
2017-11-08T10:20:43.080Z,63.10
2017-11-08T10:21:50.639Z,66.18
2017-11-08T10:23:00.949Z,63.47
2017-11-08T10:24:06.721Z,63.35
2017-11-08T10:25:13.309Z,61.90
2017-11-08T10:26:19.558Z,63.38
2017-11-08T10:27:26.109Z,66.45
2017-11-08T10:28:31.910Z,63.10
2017-11-08T10:29:37.669Z,61.97
2017-11-08T10:30:44.201Z,62.22
2017-11-08T10:31:49.770Z,70.20
2017-11-08T10:32:56.294Z,58.42
2017-11-08T10:34:02.094Z,64.65
2017-11-08T10:35:07.853Z,62.58
2017-11-08T10:36:12.680Z,62.60
2017-11-08T10:37:18.444Z,62.53
2017-11-08T10:38:24.283Z,69.85
2017-11-08T10:39:30.270Z,61.35
2017-11-08T10:40:36.795Z,62.08
2017-11-08T10:41:42.553Z,57.78
2017-11-08T10:42:48.349Z,58.10
2017-11-08T10:43:54.110Z,62.47
2017-11-08T10:44:59.895Z,60.70
2017-11-08T10:46:05.313Z,62.88
2017-11-08T10:47:11.091Z,66.68
2017-11-08T10:48:16.857Z,58.75
2017-11-08T10:49:22.625Z,62.20
2017-11-08T10:50:29.184Z,64.95
2017-11-08T10:51:35.370Z,60.42
2017-11-08T10:52:41.271Z,66.35
2017-11-08T10:53:52.753Z,60.60
2017-11-08T10:54:59.165Z,61.80
2017-11-08T10:56:04.985Z,67.12
2017-11-08T10:57:10.741Z,62.58
2017-11-08T10:58:23.178Z,61.72
2017-11-08T10:59:28.250Z,56.83
2017-11-08T11:00:33.140Z,68.43
2017-11-08T11:01:39.389Z,66.07
2017-11-08T11:02:45.977Z,59.10
2017-11-08T11:03:52.329Z,60.50
2017-11-08T11:04:58.095Z,62.17
2017-11-08T11:06:03.517Z,67.95
2017-11-08T11:07:09.311Z,56.75
2017-11-08T11:08:15.087Z,59.05
2017-11-08T11:09:23.463Z,62.00
2017-11-08T11:10:28.883Z,57.97
2017-11-08T11:11:33.959Z,57.72
2017-11-08T11:12:39.740Z,57.30
2017-11-08T11:13:48.477Z,55.50
2017-11-08T11:14:54.326Z,59.63
2017-11-08T11:16:00.509Z,59.75
2017-11-08T11:17:05.578Z,58.15
2017-11-08T11:18:11.025Z,61.60
2017-11-08T11:19:21.512Z,54.35
2017-11-08T11:20:28.325Z,61.10
2017-11-08T11:21:39.922Z,56.42
2017-11-08T11:22:45.398Z,61.65
2017-11-08T11:23:50.517Z,64.87
2017-11-08T11:24:56.374Z,57.95
2017-11-08T11:26:02.156Z,61.88
2017-11-08T11:27:13.237Z,56.47
2017-11-08T11:28:18.317Z,55.22
2017-11-08T11:29:23.765Z,59.47
2017-11-08T11:30:28.840Z,62.47
2017-11-08T11:31:34.622Z,61.65
2017-11-08T11:32:44.235Z,60.67
2017-11-08T11:33:49.644Z,61.22
2017-11-08T11:34:55.505Z,56.92
2017-11-08T11:36:00.596Z,58.30
2017-11-08T11:37:07.198Z,61.20
2017-11-08T11:38:12.630Z,62.75
2017-11-08T11:39:17.702Z,62.58
2017-11-08T11:40:22.803Z,62.50
2017-11-08T11:41:28.025Z,59.70
2017-11-08T11:42:33.097Z,59.28
2017-11-08T11:43:45.450Z,56.72
2017-11-08T11:44:50.519Z,56.53
2017-11-08T11:45:55.698Z,61.42
2017-11-08T11:47:01.473Z,67.07
2017-11-08T11:48:12.209Z,59.80
2017-11-08T11:49:17.278Z,57.83
2017-11-08T11:50:23.033Z,55.12
2017-11-08T11:51:33.193Z,60.20
2017-11-08T11:52:39.721Z,60.80
2017-11-08T11:53:45.495Z,58.20
2017-11-08T11:54:52.011Z,55.95
2017-11-08T11:55:57.769Z,57.30
2017-11-08T11:57:03.222Z,54.70
2017-11-08T11:58:09.108Z,55.47
2017-11-08T11:59:15.973Z,59.60
2017-11-08T12:00:21.134Z,54.78
2017-11-08T12:01:25.947Z,57.08
2017-11-08T12:02:30.892Z,63.60
2017-11-08T12:03:36.026Z,53.47
2017-11-08T12:04:41.718Z,59.65
2017-11-08T12:05:46.622Z,55.55
2017-11-08T12:06:51.438Z,56.03
2017-11-08T12:07:56.294Z,61.10
2017-11-08T12:09:01.343Z,52.67
2017-11-08T12:10:09.396Z,58.00
2017-11-08T12:11:14.343Z,59.72
2017-11-08T12:12:19.424Z,58.47
2017-11-08T12:13:24.526Z,56.90
2017-11-08T12:14:30.714Z,60.40
2017-11-08T12:15:35.942Z,56.95
2017-11-08T12:16:41.369Z,61.00
2017-11-08T12:17:46.804Z,60.65
2017-11-08T12:18:50.931Z,59.72
2017-11-08T12:19:57.305Z,57.78
2017-11-08T12:21:02.722Z,60.10
2017-11-08T12:22:07.791Z,59.67
2017-11-08T12:23:13.622Z,55.97
2017-11-08T12:24:19.249Z,56.30
2017-11-08T12:25:24.326Z,62.20
2017-11-08T12:26:31.422Z,62.13
2017-11-08T12:27:36.535Z,59.15
2017-11-08T12:28:45.737Z,58.33
2017-11-08T12:29:50.844Z,62.10
2017-11-08T12:30:56.610Z,57.08
2017-11-08T12:32:02.026Z,57.05
2017-11-08T12:33:08.211Z,57.33
2017-11-08T12:34:13.339Z,55.90
2017-11-08T12:35:18.778Z,59.25
2017-11-08T12:36:24.302Z,54.30
2017-11-08T12:37:29.364Z,60.08
2017-11-08T12:38:40.624Z,57.28
2017-11-08T12:39:51.814Z,57.22
2017-11-08T12:40:56.911Z,56.28
2017-11-08T12:42:04.674Z,58.15
2017-11-08T12:43:09.762Z,54.22
2017-11-08T12:44:14.827Z,61.25
2017-11-08T12:45:19.898Z,55.42
2017-11-08T12:46:25.085Z,55.80
2017-11-08T12:47:30.870Z,56.22
2017-11-08T12:48:35.947Z,55.12
2017-11-08T12:49:41.716Z,51.22
2017-11-08T12:50:46.777Z,55.67
2017-11-08T12:51:52.216Z,54.15
2017-11-08T12:52:57.272Z,52.33
2017-11-08T12:54:02.158Z,56.92
2017-11-08T12:55:07.574Z,54.88
2017-11-08T12:56:12.453Z,59.85
2017-11-08T12:57:17.564Z,60.28
2017-11-08T12:58:23.398Z,61.72
2017-11-08T12:59:29.578Z,56.53
2017-11-08T13:00:34.462Z,52.45
2017-11-08T13:01:40.053Z,59.75
2017-11-08T13:02:47.123Z,56.30
2017-11-08T13:03:52.569Z,55.47
2017-11-08T13:04:57.481Z,56.92
2017-11-08T13:06:03.574Z,52.47
2017-11-08T13:07:09.405Z,56.20
2017-11-08T13:08:15.384Z,60.10
2017-11-08T13:09:21.222Z,57.10
2017-11-08T13:10:26.890Z,62.25
2017-11-08T13:11:36.166Z,52.00
2017-11-08T13:12:41.656Z,52.75
2017-11-08T13:13:46.757Z,56.28
2017-11-08T13:14:53.028Z,55.70
2017-11-08T13:15:58.449Z,50.78
2017-11-08T13:17:03.524Z,56.30
2017-11-08T13:18:08.945Z,59.13
2017-11-08T13:19:14.394Z,55.53
2017-11-08T13:20:19.462Z,50.83
2017-11-08T13:21:25.305Z,51.47
2017-11-08T13:22:31.580Z,61.53
2017-11-08T13:23:37.004Z,56.50
2017-11-08T13:24:43.004Z,63.40
2017-11-08T13:25:48.417Z,56.53
2017-11-08T13:26:54.130Z,58.03
2017-11-08T13:27:59.559Z,54.30
2017-11-08T13:29:04.385Z,54.15
2017-11-08T13:30:09.515Z,53.38
2017-11-08T13:31:14.926Z,55.75
2017-11-08T13:32:20.781Z,57.55
2017-11-08T13:33:27.303Z,52.45
2017-11-08T13:34:32.583Z,58.28
2017-11-08T13:35:37.690Z,59.75
2017-11-08T13:36:42.769Z,49.33
2017-11-08T13:37:48.201Z,55.22
2017-11-08T13:38:53.269Z,55.08
2017-11-08T13:39:59.485Z,53.28
2017-11-08T13:41:07.490Z,52.22
2017-11-08T13:42:12.910Z,59.13
2017-11-08T13:43:17.980Z,52.80
2017-11-08T13:44:23.824Z,54.42
2017-11-08T13:45:30.025Z,58.40
2017-11-08T13:46:35.117Z,56.92
2017-11-08T13:47:39.981Z,52.60
2017-11-08T13:48:45.404Z,53.38
2017-11-08T13:49:50.499Z,56.28
2017-11-08T13:50:55.909Z,58.10
2017-11-08T13:52:02.469Z,56.42
2017-11-08T13:53:09.114Z,57.67
2017-11-08T13:54:14.026Z,57.40
2017-11-08T13:55:19.463Z,58.15
2017-11-08T13:56:26.145Z,61.33
2017-11-08T13:57:31.934Z,52.97
2017-11-08T13:58:37.700Z,57.85
2017-11-08T13:59:42.785Z,54.28
2017-11-08T14:00:48.567Z,51.58
2017-11-08T14:01:53.680Z,53.72
2017-11-08T14:02:58.820Z,52.62
2017-11-08T14:04:06.987Z,54.67
2017-11-08T14:05:13.104Z,61.08
2017-11-08T14:07:27.973Z,52.45
2017-11-08T14:08:33.830Z,54.28
2017-11-08T14:09:39.604Z,56.13
2017-11-08T14:10:44.673Z,48.38
2017-11-08T14:11:51.263Z,53.83
2017-11-08T14:12:57.020Z,49.95